Flight Track Log - Related Links

Times and Time Zones

All times are in EDT time to prevent confusion due to time zone crossing. See the LXJ437 flight status page for this flight to view local times or setup timezone preferences in your user account.

Time Position Orientation Groundspeed Altitude Reporting Facility
EDT Latitude Longitude Course Direction KTS MPH feet Rate Location/Type
Sun 02:10:00 PM 38.6422 -106.7708 54° Northeast 270 311 16,700  Level Denver Center
Sun 02:11:02 PM 38.6911 -106.6886 53° Northeast 286 329 18,900 1,839 Climbing Denver Center
Sun 02:12:04 PM 38.7436 -106.6161 47° Northeast 329 379 20,500 1,984 Climbing Denver Center
Sun 02:13:06 PM 38.8319 -106.4892 48° Northeast 393 452 23,000 2,613 Climbing Denver Center
Sun 02:14:08 PM 38.9075 -106.3472 56° Northeast 434 499 25,900 2,226 Climbing Denver Center
Sun 02:15:00 PM 38.8520 -106.4508 54° Northeast  Level FlightAware Approximate
Sun 02:15:10 PM 38.9728 -106.2231 56° Northeast 439 505 27,600  Level Denver Center
Sun 02:16:12 PM 39.0533 -106.0703 56° Northeast 462 532 29,800 2,129 Climbing Denver Center
Sun 02:17:14 PM 39.1250 -105.9319 56° Northeast 466 536 32,000 1,887 Climbing Denver Center
Sun 02:18:16 PM 39.1964 -105.7925 57° Northeast 464 534 33,700 1,452 Climbing Denver Center
Sun 02:19:18 PM 39.2700 -105.6503 56° Northeast 475 547 35,000 1,756 Climbing Denver Center
Sun 02:20:19 PM 39.3567 -105.4794 57° Northeast 474 545 37,300 1,756 Climbing Denver Center
Sun 02:21:21 PM 39.4300 -105.3383 56° Northeast 468 539 38,600 1,113 Climbing Denver Center
Sun 02:22:23 PM 39.5011 -105.1978 57° Northeast 468 539 39,600 774 Climbing Denver Center
Sun 02:23:25 PM 39.5728 -105.0556 57° Northeast 467 537 40,200 677 Climbing Denver Center
Sun 02:24:27 PM 39.6464 -104.9081 57° Northeast 481 554 41,000 387 Climbing Denver Center
Sun 02:25:29 PM 39.7247 -104.7542 56° Northeast 497 572 41,000  Level Denver Center
Sun 02:26:31 PM 39.8039 -104.5978 57° Northeast 497 572 41,000 194 Level Denver Center
Sun 02:27:33 PM 39.8786 -104.4458 57° Northeast 504 580 41,400 677 Climbing Denver Center
Sun 02:28:35 PM 39.9503 -104.2961 58° Northeast 474 545 42,400 1,016 Climbing Denver Center
Sun 02:29:37 PM 40.0361 -104.1192 58° Northeast 468 539 43,500 976 Climbing Denver Center
Sun 02:30:38 PM 40.1061 -103.9736 58° Northeast 469 540 44,400 732 Climbing Denver Center
Sun 02:31:40 PM 40.1753 -103.8319 57° Northeast 461 531 45,000 290 Climbing Denver Center
Sun 02:32:42 PM 40.2458 -103.6908 57° Northeast 453 521 45,000  Level Denver Center
Sun 02:33:44 PM 40.3156 -103.5436 58° Northeast 474 545 45,000  Level Denver Center
Sun 02:34:46 PM 40.3872 -103.3928 58° Northeast 487 560 45,000  Level Denver Center
Sun 02:35:48 PM 40.4600 -103.2422 58° Northeast 489 563 45,000  Level Denver Center
Sun 02:36:50 PM 40.5469 -103.0581 58° Northeast 494 568 45,000  Level Denver Center
Sun 02:37:52 PM 40.6178 -102.9058 58° Northeast 490 564 45,000  Level Denver Center
Sun 02:38:54 PM 40.6908 -102.7497 58° Northeast 484 557 45,000  Level Denver Center
Sun 02:39:55 PM 40.7592 -102.6047 58° Northeast 486 559 45,000  Level Denver Center
Sun 02:40:57 PM 40.8375 -102.4358 58° Northeast 484 557 45,000  Level Denver Center
Sun 02:41:59 PM 40.9056 -102.2894 58° Northeast 488 562 45,000  Level Denver Center
Sun 02:43:01 PM 40.9833 -102.1189 59° Northeast 484 557 45,000  Level Denver Center
Sun 02:44:03 PM 41.0522 -101.9703 58° Northeast 491 565 45,000  Level Denver Center
Sun 02:45:05 PM 41.1192 -101.8217 59° Northeast 490 564 45,000  Level Denver Center
Sun 02:46:07 PM 41.1986 -101.6486 59° Northeast 491 565 45,000  Level Denver Center
Sun 02:47:09 PM 41.2656 -101.5003 59° Northeast 488 562 45,000  Level Denver Center
Sun 02:48:11 PM 41.3450 -101.3242 59° Northeast 494 568 45,000  Level Denver Center
Sun 02:49:13 PM 41.4119 -101.1733 59° Northeast 493 567 45,000  Level Denver Center
Sun 02:50:15 PM 41.4919 -100.9956 59° Northeast 496 571 45,000  Level Denver Center
Sun 02:51:17 PM 41.5575 -100.8428 60° Northeast 494 568 45,000  Level Denver Center
Sun 02:52:19 PM 41.6247 -100.6894 60° Northeast 497 572 45,000  Level Denver Center
Sun 02:53:21 PM 41.7008 -100.5144 60° Northeast 490 564 45,000  Level Denver Center
Sun 02:54:23 PM 41.7658 -100.3636 60° Northeast 487 560 45,000  Level Denver Center
Sun 02:55:25 PM 41.8411 -100.1878 60° Northeast 487 560 45,000  Level Denver Center
Sun 02:56:27 PM 41.9058 -100.0375 60° Northeast 485 558 45,000  Level Denver Center
Sun 02:57:29 PM 41.9817 -99.8617 60° Northeast 488 562 45,000  Level Denver Center
Sun 02:58:31 PM 42.0467 -99.7061 61° Northeast 491 565 45,000  Level Denver Center
Sun 02:59:33 PM 42.1158 -99.5439 60° Northeast 497 572 45,000  Level Denver Center
Sun 03:00:19 PM 42.1706 -99.4150 60° Northeast 494 568 45,000  Level Minneapolis Center
Sun 03:01:21 PM 42.2381 -99.2519 61° Northeast 496 571 45,000  Level Minneapolis Center
Sun 03:02:23 PM 42.3047 -99.0900 61° Northeast 493 567 45,000  Level Minneapolis Center
Sun 03:03:25 PM 42.3714 -98.9294 61° Northeast 489 563 45,000  Level Minneapolis Center
Sun 03:04:27 PM 42.4372 -98.7681 61° Northeast 489 563 45,000  Level Minneapolis Center
Sun 03:05:42 PM 42.5489 -98.5653 53° Northeast 480 552 45,000  Level Minneapolis Center
Sun 03:06:44 PM 42.6350 -98.4286 49° Northeast 478 550 45,000  Level Minneapolis Center
Sun 03:07:46 PM 42.7217 -98.2922 49° Northeast 477 549 45,000  Level Minneapolis Center
Sun 03:08:48 PM 42.8108 -98.1517 49° Northeast 475 547 45,000  Level Minneapolis Center
Sun 03:09:50 PM 42.8972 -98.0147 49° Northeast 477 549 45,000  Level Minneapolis Center
Sun 03:10:52 PM 42.9825 -97.8775 50° Northeast 476 548 45,000  Level Minneapolis Center
Sun 03:11:54 PM 43.0656 -97.7397 50° Northeast 471 542 45,000  Level Minneapolis Center
Sun 03:12:56 PM 43.1672 -97.5772 49° Northeast 470 541 45,000  Level Minneapolis Center
Sun 03:13:58 PM 43.2494 -97.4417 50° Northeast 465 535 45,000  Level Minneapolis Center
Sun 03:15:00 PM 43.3328 -97.3056 50° Northeast 467 537 45,000  Level Minneapolis Center
Sun 03:16:03 PM 43.4169 -97.1686 50° Northeast 469 540 45,000  Level Minneapolis Center
Sun 03:17:05 PM 43.5003 -97.0281 51° Northeast 473 544 45,000  Level Minneapolis Center
Sun 03:18:19 PM 43.6194 -96.8306 50° Northeast 479 551 45,000  Level Minneapolis Center
Sun 03:19:21 PM 43.6975 -96.6822 54° Northeast 479 551 45,000  Level Minneapolis Center
Sun 03:20:23 PM 43.7672 -96.5247 58° Northeast 481 554 45,000  Level Minneapolis Center
Sun 03:21:25 PM 43.8392 -96.3675 58° Northeast 485 558 45,000  Level Minneapolis Center
Sun 03:22:27 PM 43.9111 -96.2111 57° Northeast 487 560 45,000  Level Minneapolis Center
Sun 03:23:29 PM 43.9969 -96.0222 58° Northeast 491 565 45,000  Level Minneapolis Center
Sun 03:24:32 PM 44.0681 -95.8667 57° Northeast 488 562 45,000  Level Minneapolis Center
Sun 03:25:34 PM 44.1375 -95.7122 58° Northeast 480 552 45,000  Level Minneapolis Center
Sun 03:26:36 PM 44.2086 -95.5567 57° Northeast 480 552 45,000  Level Minneapolis Center
Sun 03:27:38 PM 44.2911 -95.3717 58° Northeast 474 545 45,000  Level Minneapolis Center
Sun 03:28:40 PM 44.3583 -95.2169 59° Northeast 470 541 45,000  Level Minneapolis Center
Sun 03:29:42 PM 44.4272 -95.0611 58° Northeast 473 544 45,000  Level Minneapolis Center
Sun 03:30:44 PM 44.4961 -94.9061 58° Northeast 473 544 45,000  Level Minneapolis Center
Sun 03:31:46 PM 44.5647 -94.7500 58° Northeast 472 543 45,000  Level Minneapolis Center
Sun 03:32:48 PM 44.6333 -94.5847 60° Northeast 465 535 45,000  Level Minneapolis Center
Sun 03:33:50 PM 44.7006 -94.4294 59° Northeast 466 536 45,000  Level Minneapolis Center
Sun 03:34:52 PM 44.7672 -94.2742 59° Northeast 464 534 45,000  Level Minneapolis Center
Sun 03:35:54 PM 44.8467 -94.0883 59° Northeast 464 534 45,000  Level Minneapolis Center
Sun 03:36:56 PM 44.9125 -93.9344 59° Northeast 459 528 45,000  Level Minneapolis Center
Sun 03:37:58 PM 44.9772 -93.7806 59° Northeast 456 525 45,000  Level Minneapolis Center
Sun 03:39:00 PM 45.0425 -93.6244 59° Northeast 459 528 45,000  Level Minneapolis Center
Sun 03:40:15 PM 45.1197 -93.4381 60° Northeast 455 524 45,000  Level Minneapolis Center
Sun 03:41:29 PM 45.1644 -93.2736 69° East 446 513 45,000  Level Minneapolis Center
Sun 03:42:31 PM 45.1994 -93.0689 76° East 444 511 45,000  Level Minneapolis Center
Sun 03:43:34 PM 45.2350 -92.8614 76° East 450 518 45,000  Level Minneapolis Center
Sun 03:44:36 PM 45.2639 -92.6911 76° East 447 514 45,000  Level Minneapolis Center
Sun 03:45:38 PM 45.2925 -92.5169 77° East 452 520 45,000  Level Minneapolis Center
Sun 03:46:40 PM 45.3228 -92.3436 76° East 453 521 45,000  Level Minneapolis Center
Sun 03:47:42 PM 45.3511 -92.1678 77° East 457 526 45,000  Level Minneapolis Center
Sun 03:48:44 PM 45.3806 -91.9908 77° East 462 532 45,000  Level Minneapolis Center
Sun 03:49:46 PM 45.4150 -91.7758 77° East 466 536 45,000  Level Minneapolis Center
Sun 03:50:48 PM 45.4392 -91.5942 79° East 468 539 45,000  Level Minneapolis Center
Sun 03:51:50 PM 45.4603 -91.4089 81° East 473 544 45,000  Level Minneapolis Center
Sun 03:52:52 PM 45.4836 -91.2200 80° East 476 548 45,000  Level Minneapolis Center
Sun 03:53:54 PM 45.5053 -91.0328 81° East 479 551 45,000  Level Minneapolis Center
Sun 03:54:56 PM 45.5264 -90.8450 81° East 481 554 45,000  Level Minneapolis Center
Sun 03:55:58 PM 45.5500 -90.6589 80° East 481 554 45,000  Level Minneapolis Center
Sun 03:57:00 PM 45.5753 -90.4328 81° East 484 557 45,000  Level Minneapolis Center
Sun 03:58:02 PM 45.5972 -90.2461 80° East 479 551 45,000  Level Minneapolis Center
Sun 03:59:04 PM 45.6181 -90.0581 81° East 481 554 45,000  Level Minneapolis Center
Sun 04:00:06 PM 45.6381 -89.8711 81° East 481 554 45,000  Level Minneapolis Center
Sun 04:01:08 PM 45.6600 -89.6681 81° East 480 552 45,000  Level Minneapolis Center
Sun 04:02:10 PM 45.6811 -89.4792 81° East 480 552 45,000  Level Minneapolis Center
Sun 04:03:12 PM 45.7003 -89.2892 82° East 480 552 45,000  Level Minneapolis Center
Sun 04:04:14 PM 45.7233 -89.0681 81° East 481 554 45,000  Level Minneapolis Center
Sun 04:05:16 PM 45.7400 -88.8964 82° East 484 557 45,000  Level Minneapolis Center
Sun 04:06:18 PM 45.7581 -88.7086 82° East 482 555 45,000  Level Minneapolis Center
Sun 04:07:20 PM 45.7772 -88.5231 82° East 476 548 45,000  Level Minneapolis Center
Sun 04:08:22 PM 45.7981 -88.2972 82° East 479 551 45,000 -242 Level Minneapolis Center
Sun 04:09:24 PM 45.8167 -88.1083 82° East 474 545 44,500 -726 Descending Minneapolis Center
Sun 04:10:26 PM 45.8489 -87.9253 76° East 473 544 43,500 -968 Descending Minneapolis Center
Sun 04:11:28 PM 45.8797 -87.7444 76° East 469 540 42,500 -919 Descending Minneapolis Center
Sun 04:12:30 PM 45.9111 -87.5653 76° East 463 533 41,600 -968 Descending Minneapolis Center
Sun 04:13:32 PM 45.9422 -87.3847 76° East 467 537 40,500 -1,584 Descending Minneapolis Center
Sun 04:14:35 PM 45.9789 -87.1567 77° East 484 557 38,300 -1,680 Descending Minneapolis Center
Sun 04:15:37 PM 46.0106 -86.9694 76° East 485 558 37,000 -677 Descending Minneapolis Center
Sun 04:16:39 PM 46.0408 -86.7819 77° East 481 554 36,900 -48 Descending Minneapolis Center
Sun 04:17:41 PM 46.0717 -86.5925 77° East 485 558 36,900 -48 Level Minneapolis Center
Sun 04:18:44 PM 46.1022 -86.4028 77° East 486 559 36,800 -1,248 Descending Minneapolis Center
Sun 04:19:46 PM 46.1317 -86.2133 77° East 485 558 34,300 -3,242 Descending Minneapolis Center
Sun 04:20:48 PM 46.1664 -85.9914 77° East 474 545 30,100 -3,706 Descending Minneapolis Center
Sun 04:22:02 PM 46.1997 -85.7675 78° East 474 545 25,900 -3,397 Descending Minneapolis Center
Sun 04:23:04 PM 46.2275 -85.5875 77° East 465 535 22,400 -3,000 Descending Minneapolis Center
Sun 04:24:06 PM 46.2525 -85.4119 78° East 451 519 19,700 -2,516 Descending Minneapolis Center
Sun 04:25:08 PM 46.2783 -85.2406 78° East 444 511 17,200 -2,206 Descending Minneapolis Center
Sun 04:26:22 PM 46.3067 -85.0822 75° East 430 495 14,700 -2,891 Descending Minneapolis Center
Sun 04:27:25 PM 46.3467 -84.8753 74° East 396 456 10,600 -2,832 Descending Minneapolis Center
Sun 04:28:27 PM 46.3700 -84.7372 76° East 336 387 8,800 -1,918 Descending Minneapolis Center
Sun 04:29:27 PM 46.3833 -84.6167 81° East 320 368 6,700 -2,700 Descending Toronto Center
Sun 04:30:27 PM 46.3167 -84.5500 145° Southeast 290 334 3,400 -3,300 Descending Toronto Center

Login

Don't have an account? Register now (free) for customized features, flight alerts, and more!